sensor_id;sensor_type;location;lat;lon;timestamp;temperature;humidity
921;DHT22;447;51.332;6.778;2023-08-21T00:00:00;27.30;91.20
921;DHT22;447;51.332;6.778;2023-08-21T00:02:28;27.30;91.20
921;DHT22;447;51.332;6.778;2023-08-21T00:04:54;27.30;91.20
921;DHT22;447;51.332;6.778;2023-08-21T00:07:20;27.30;91.20
921;DHT22;447;51.332;6.778;2023-08-21T00:09:46;27.30;91.30
921;DHT22;447;51.332;6.778;2023-08-21T00:12:13;27.20;91.20
921;DHT22;447;51.332;6.778;2023-08-21T00:14:41;27.20;91.10
921;DHT22;447;51.332;6.778;2023-08-21T00:17:08;27.20;91.20
921;DHT22;447;51.332;6.778;2023-08-21T00:19:43;27.20;91.20
921;DHT22;447;51.332;6.778;2023-08-21T00:22:09;27.20;91.20
921;DHT22;447;51.332;6.778;2023-08-21T00:24:38;27.20;91.20
921;DHT22;447;51.332;6.778;2023-08-21T00:27:04;27.10;91.10
921;DHT22;447;51.332;6.778;2023-08-21T00:29:30;27.10;91.20
921;DHT22;447;51.332;6.778;2023-08-21T00:31:58;27.10;91.20
921;DHT22;447;51.332;6.778;2023-08-21T00:34:26;27.10;91.20
921;DHT22;447;51.332;6.778;2023-08-21T00:36:53;27.10;91.20
921;DHT22;447;51.332;6.778;2023-08-21T00:39:21;27.10;91.20
921;DHT22;447;51.332;6.778;2023-08-21T00:41:50;27.10;91.20
921;DHT22;447;51.332;6.778;2023-08-21T00:44:16;27.10;91.10
921;DHT22;447;51.332;6.778;2023-08-21T00:46:42;27.10;91.10
921;DHT22;447;51.332;6.778;2023-08-21T00:49:08;27.00;91.00
921;DHT22;447;51.332;6.778;2023-08-21T00:51:37;27.00;91.00
921;DHT22;447;51.332;6.778;2023-08-21T00:54:05;27.00;91.00
921;DHT22;447;51.332;6.778;2023-08-21T00:56:31;27.00;91.00
921;DHT22;447;51.332;6.778;2023-08-21T00:58:58;27.00;91.00
921;DHT22;447;51.332;6.778;2023-08-21T01:01:24;27.00;91.00
921;DHT22;447;51.332;6.778;2023-08-21T01:03:56;26.90;91.10
921;DHT22;447;51.332;6.778;2023-08-21T01:06:22;26.90;91.00
921;DHT22;447;51.332;6.778;2023-08-21T01:09:02;26.90;91.00
921;DHT22;447;51.332;6.778;2023-08-21T01:11:43;26.90;91.10
921;DHT22;447;51.332;6.778;2023-08-21T01:14:36;26.90;91.10
921;DHT22;447;51.332;6.778;2023-08-21T01:17:06;26.90;91.10
921;DHT22;447;51.332;6.778;2023-08-21T01:19:40;26.80;91.00
921;DHT22;447;51.332;6.778;2023-08-21T01:22:09;26.80;91.00
921;DHT22;447;51.332;6.778;2023-08-21T01:24:37;26.80;91.00
921;DHT22;447;51.332;6.778;2023-08-21T01:27:08;26.80;91.00
921;DHT22;447;51.332;6.778;2023-08-21T01:29:35;26.80;91.00
921;DHT22;447;51.332;6.778;2023-08-21T01:32:27;26.80;91.00
921;DHT22;447;51.332;6.778;2023-08-21T01:35:00;26.70;91.00
921;DHT22;447;51.332;6.778;2023-08-21T01:37:30;26.70;91.00
921;DHT22;447;51.332;6.778;2023-08-21T01:40:00;26.70;91.00
921;DHT22;447;51.332;6.778;2023-08-21T01:42:29;26.70;91.00
921;DHT22;447;51.332;6.778;2023-08-21T01:44:55;26.70;91.00
921;DHT22;447;51.332;6.778;2023-08-21T01:47:22;26.70;91.00
921;DHT22;447;51.332;6.778;2023-08-21T01:49:50;26.70;90.90
921;DHT22;447;51.332;6.778;2023-08-21T01:52:19;26.60;90.90
921;DHT22;447;51.332;6.778;2023-08-21T01:54:45;26.60;90.90
921;DHT22;447;51.332;6.778;2023-08-21T01:57:16;26.60;90.90
921;DHT22;447;51.332;6.778;2023-08-21T01:59:42;26.60;90.80
921;DHT22;447;51.332;6.778;2023-08-21T02:02:10;26.60;90.80
921;DHT22;447;51.332;6.778;2023-08-21T02:04:36;26.60;90.90
921;DHT22;447;51.332;6.778;2023-08-21T02:07:05;26.60;90.90
921;DHT22;447;51.332;6.778;2023-08-21T02:09:33;26.60;90.90
921;DHT22;447;51.332;6.778;2023-08-21T02:11:59;26.50;90.80
921;DHT22;447;51.332;6.778;2023-08-21T02:14:25;26.50;90.90
921;DHT22;447;51.332;6.778;2023-08-21T02:16:51;26.50;90.90
921;DHT22;447;51.332;6.778;2023-08-21T02:19:17;26.50;90.80
921;DHT22;447;51.332;6.778;2023-08-21T02:21:43;26.40;90.80
921;DHT22;447;51.332;6.778;2023-08-21T02:24:17;26.40;90.80
921;DHT22;447;51.332;6.778;2023-08-21T02:26:43;26.40;90.80
921;DHT22;447;51.332;6.778;2023-08-21T02:29:13;26.40;90.80
921;DHT22;447;51.332;6.778;2023-08-21T02:31:41;26.40;90.80
921;DHT22;447;51.332;6.778;2023-08-21T02:34:09;26.40;90.90
921;DHT22;447;51.332;6.778;2023-08-21T02:36:34;26.40;90.90
921;DHT22;447;51.332;6.778;2023-08-21T02:39:01;26.40;90.90
921;DHT22;447;51.332;6.778;2023-08-21T02:41:27;26.30;90.90
921;DHT22;447;51.332;6.778;2023-08-21T02:43:57;26.40;91.00
921;DHT22;447;51.332;6.778;2023-08-21T02:46:23;26.30;90.90
921;DHT22;447;51.332;6.778;2023-08-21T02:48:49;26.30;90.90
921;DHT22;447;51.332;6.778;2023-08-21T02:51:17;26.30;90.90
921;DHT22;447;51.332;6.778;2023-08-21T02:53:47;26.30;90.90
921;DHT22;447;51.332;6.778;2023-08-21T02:56:15;26.30;91.00
921;DHT22;447;51.332;6.778;2023-08-21T02:58:42;26.30;91.10
921;DHT22;447;51.332;6.778;2023-08-21T03:01:08;26.20;91.00
921;DHT22;447;51.332;6.778;2023-08-21T03:03:34;26.20;91.10
921;DHT22;447;51.332;6.778;2023-08-21T03:06:03;26.20;91.10
921;DHT22;447;51.332;6.778;2023-08-21T03:08:32;26.20;91.00
921;DHT22;447;51.332;6.778;2023-08-21T03:11:01;26.10;91.00
921;DHT22;447;51.332;6.778;2023-08-21T03:13:29;26.10;91.00
921;DHT22;447;51.332;6.778;2023-08-21T03:16:00;26.10;91.10
921;DHT22;447;51.332;6.778;2023-08-21T03:18:31;26.10;91.10
921;DHT22;447;51.332;6.778;2023-08-21T03:20:57;26.10;91.10
921;DHT22;447;51.332;6.778;2023-08-21T03:23:23;26.10;91.10
921;DHT22;447;51.332;6.778;2023-08-21T03:25:57;26.10;91.10
921;DHT22;447;51.332;6.778;2023-08-21T03:28:28;26.00;91.20
921;DHT22;447;51.332;6.778;2023-08-21T03:30:57;26.00;91.10
921;DHT22;447;51.332;6.778;2023-08-21T03:33:25;26.00;91.20
921;DHT22;447;51.332;6.778;2023-08-21T03:35:54;26.00;91.10
921;DHT22;447;51.332;6.778;2023-08-21T03:38:21;26.00;91.20
921;DHT22;447;51.332;6.778;2023-08-21T03:40:47;26.00;91.20
921;DHT22;447;51.332;6.778;2023-08-21T03:43:14;26.00;91.20
921;DHT22;447;51.332;6.778;2023-08-21T03:45:42;26.00;91.20
921;DHT22;447;51.332;6.778;2023-08-21T03:48:12;25.90;91.20
921;DHT22;447;51.332;6.778;2023-08-21T03:50:40;25.90;91.20
921;DHT22;447;51.332;6.778;2023-08-21T03:53:06;25.90;91.20
921;DHT22;447;51.332;6.778;2023-08-21T03:55:33;25.90;91.20
921;DHT22;447;51.332;6.778;2023-08-21T03:57:59;25.90;91.20
921;DHT22;447;51.332;6.778;2023-08-21T04:00:27;25.90;91.20
921;DHT22;447;51.332;6.778;2023-08-21T04:02:53;25.90;91.20
921;DHT22;447;51.332;6.778;2023-08-21T04:05:19;25.80;91.20
921;DHT22;447;51.332;6.778;2023-08-21T04:07:47;25.80;91.20
921;DHT22;447;51.332;6.778;2023-08-21T04:10:14;25.80;91.20
921;DHT22;447;51.332;6.778;2023-08-21T04:12:45;25.80;91.10
921;DHT22;447;51.332;6.778;2023-08-21T04:15:16;25.80;91.20
921;DHT22;447;51.332;6.778;2023-08-21T04:17:42;25.80;91.10
921;DHT22;447;51.332;6.778;2023-08-21T04:20:11;25.80;91.10
921;DHT22;447;51.332;6.778;2023-08-21T04:22:41;25.70;91.10
921;DHT22;447;51.332;6.778;2023-08-21T04:25:07;25.70;91.10
921;DHT22;447;51.332;6.778;2023-08-21T04:27:37;25.70;91.10
921;DHT22;447;51.332;6.778;2023-08-21T04:30:04;25.70;91.10
921;DHT22;447;51.332;6.778;2023-08-21T04:32:31;25.70;91.10
921;DHT22;447;51.332;6.778;2023-08-21T04:34:59;25.70;91.20
921;DHT22;447;51.332;6.778;2023-08-21T04:37:28;25.70;91.10
921;DHT22;447;51.332;6.778;2023-08-21T04:39:55;25.60;91.10
921;DHT22;447;51.332;6.778;2023-08-21T04:42:25;25.60;91.10
921;DHT22;447;51.332;6.778;2023-08-21T04:44:51;25.60;91.10
921;DHT22;447;51.332;6.778;2023-08-21T04:47:26;25.60;91.10
921;DHT22;447;51.332;6.778;2023-08-21T04:49:56;25.60;91.10
921;DHT22;447;51.332;6.778;2023-08-21T04:52:23;25.60;91.10
921;DHT22;447;51.332;6.778;2023-08-21T04:54:49;25.60;91.10
921;DHT22;447;51.332;6.778;2023-08-21T04:57:16;25.60;91.10
921;DHT22;447;51.332;6.778;2023-08-21T04:59:45;25.50;91.10
921;DHT22;447;51.332;6.778;2023-08-21T05:02:17;25.50;91.10
921;DHT22;447;51.332;6.778;2023-08-21T05:04:49;25.50;91.20
921;DHT22;447;51.332;6.778;2023-08-21T05:07:18;25.50;91.20
921;DHT22;447;51.332;6.778;2023-08-21T05:09:44;25.50;91.10
921;DHT22;447;51.332;6.778;2023-08-21T05:12:12;25.50;91.20
921;DHT22;447;51.332;6.778;2023-08-21T05:14:43;25.50;91.10
921;DHT22;447;51.332;6.778;2023-08-21T05:17:09;25.50;91.20
921;DHT22;447;51.332;6.778;2023-08-21T05:19:38;25.40;91.20
921;DHT22;447;51.332;6.778;2023-08-21T05:22:04;25.40;91.10
921;DHT22;447;51.332;6.778;2023-08-21T05:24:34;25.40;91.20
921;DHT22;447;51.332;6.778;2023-08-21T05:27:03;25.40;91.30
921;DHT22;447;51.332;6.778;2023-08-21T05:29:31;25.40;91.20
921;DHT22;447;51.332;6.778;2023-08-21T05:32:00;25.40;91.20
921;DHT22;447;51.332;6.778;2023-08-21T05:34:28;25.40;91.20
921;DHT22;447;51.332;6.778;2023-08-21T05:36:56;25.40;91.30
921;DHT22;447;51.332;6.778;2023-08-21T05:39:25;25.40;91.30
921;DHT22;447;51.332;6.778;2023-08-21T05:41:52;25.40;90.50
921;DHT22;447;51.332;6.778;2023-08-21T05:44:21;25.30;90.20
921;DHT22;447;51.332;6.778;2023-08-21T05:46:47;25.20;90.40
921;DHT22;447;51.332;6.778;2023-08-21T05:49:14;25.20;90.60
921;DHT22;447;51.332;6.778;2023-08-21T05:51:40;25.20;90.70
921;DHT22;447;51.332;6.778;2023-08-21T05:54:08;25.10;90.70
921;DHT22;447;51.332;6.778;2023-08-21T05:56:37;25.10;90.80
921;DHT22;447;51.332;6.778;2023-08-21T05:59:10;25.10;90.80
921;DHT22;447;51.332;6.778;2023-08-21T06:01:38;25.10;90.90
921;DHT22;447;51.332;6.778;2023-08-21T06:04:05;25.10;90.90
921;DHT22;447;51.332;6.778;2023-08-21T06:06:50;25.10;91.00
921;DHT22;447;51.332;6.778;2023-08-21T06:09:19;25.10;91.00
921;DHT22;447;51.332;6.778;2023-08-21T06:11:45;25.10;91.00
921;DHT22;447;51.332;6.778;2023-08-21T06:14:16;25.10;91.20
921;DHT22;447;51.332;6.778;2023-08-21T06:16:42;25.10;91.20
921;DHT22;447;51.332;6.778;2023-08-21T06:19:10;25.10;91.20
921;DHT22;447;51.332;6.778;2023-08-21T06:21:42;25.10;91.30
921;DHT22;447;51.332;6.778;2023-08-21T06:24:11;25.10;91.30
921;DHT22;447;51.332;6.778;2023-08-21T06:26:38;25.10;91.30
921;DHT22;447;51.332;6.778;2023-08-21T06:29:07;25.10;91.30
921;DHT22;447;51.332;6.778;2023-08-21T06:31:33;25.10;91.40
921;DHT22;447;51.332;6.778;2023-08-21T06:33:59;25.10;91.40
921;DHT22;447;51.332;6.778;2023-08-21T06:36:25;25.10;91.40
921;DHT22;447;51.332;6.778;2023-08-21T06:38:51;25.10;91.40
921;DHT22;447;51.332;6.778;2023-08-21T06:41:17;25.10;91.50
921;DHT22;447;51.332;6.778;2023-08-21T06:43:47;25.10;91.40
921;DHT22;447;51.332;6.778;2023-08-21T06:46:19;25.10;91.40
921;DHT22;447;51.332;6.778;2023-08-21T06:48:47;25.10;91.40
921;DHT22;447;51.332;6.778;2023-08-21T06:51:16;25.10;91.50
921;DHT22;447;51.332;6.778;2023-08-21T06:53:44;25.10;91.60
921;DHT22;447;51.332;6.778;2023-08-21T06:56:10;25.10;91.60
921;DHT22;447;51.332;6.778;2023-08-21T06:58:38;25.10;91.60
921;DHT22;447;51.332;6.778;2023-08-21T07:01:04;25.10;91.50
921;DHT22;447;51.332;6.778;2023-08-21T07:03:35;25.10;91.60
921;DHT22;447;51.332;6.778;2023-08-21T07:06:13;25.10;91.60
921;DHT22;447;51.332;6.778;2023-08-21T07:08:41;25.10;91.60
921;DHT22;447;51.332;6.778;2023-08-21T07:11:08;25.10;91.60
921;DHT22;447;51.332;6.778;2023-08-21T07:13:36;25.10;91.60
921;DHT22;447;51.332;6.778;2023-08-21T07:16:07;25.10;91.70
921;DHT22;447;51.332;6.778;2023-08-21T07:18:35;25.10;91.60
921;DHT22;447;51.332;6.778;2023-08-21T07:21:01;25.10;91.50
921;DHT22;447;51.332;6.778;2023-08-21T07:23:30;25.10;91.60
921;DHT22;447;51.332;6.778;2023-08-21T07:25:58;25.10;91.50
921;DHT22;447;51.332;6.778;2023-08-21T07:28:26;25.10;91.40
921;DHT22;447;51.332;6.778;2023-08-21T07:30:58;25.20;91.40
921;DHT22;447;51.332;6.778;2023-08-21T07:33:25;25.10;91.30
921;DHT22;447;51.332;6.778;2023-08-21T07:36:01;25.10;91.40
921;DHT22;447;51.332;6.778;2023-08-21T07:38:31;25.20;91.50
921;DHT22;447;51.332;6.778;2023-08-21T07:41:09;25.20;91.50
921;DHT22;447;51.332;6.778;2023-08-21T07:43:42;25.20;91.60
921;DHT22;447;51.332;6.778;2023-08-21T07:46:11;25.20;91.60
921;DHT22;447;51.332;6.778;2023-08-21T07:48:46;25.20;91.60
921;DHT22;447;51.332;6.778;2023-08-21T07:51:12;25.20;91.60
921;DHT22;447;51.332;6.778;2023-08-21T07:53:41;25.20;91.60
921;DHT22;447;51.332;6.778;2023-08-21T07:56:09;25.20;91.50
921;DHT22;447;51.332;6.778;2023-08-21T07:58:35;25.20;91.50
921;DHT22;447;51.332;6.778;2023-08-21T08:01:03;25.20;91.60
921;DHT22;447;51.332;6.778;2023-08-21T08:03:30;25.20;91.60
921;DHT22;447;51.332;6.778;2023-08-21T08:05:59;25.20;91.60
921;DHT22;447;51.332;6.778;2023-08-21T08:08:28;25.20;91.60
921;DHT22;447;51.332;6.778;2023-08-21T08:11:02;25.20;91.60
921;DHT22;447;51.332;6.778;2023-08-21T08:13:31;25.20;91.60
921;DHT22;447;51.332;6.778;2023-08-21T08:15:57;25.20;91.70
921;DHT22;447;51.332;6.778;2023-08-21T08:18:23;25.20;91.60
921;DHT22;447;51.332;6.778;2023-08-21T08:20:51;25.20;91.60
921;DHT22;447;51.332;6.778;2023-08-21T08:23:20;25.20;91.60
921;DHT22;447;51.332;6.778;2023-08-21T08:25:47;25.20;91.60
921;DHT22;447;51.332;6.778;2023-08-21T08:28:13;25.20;91.60
921;DHT22;447;51.332;6.778;2023-08-21T08:30:39;25.20;91.60
921;DHT22;447;51.332;6.778;2023-08-21T08:33:07;25.20;91.60
921;DHT22;447;51.332;6.778;2023-08-21T08:35:36;25.20;91.70
921;DHT22;447;51.332;6.778;2023-08-21T08:38:06;25.30;91.70
921;DHT22;447;51.332;6.778;2023-08-21T08:40:34;25.30;91.70
921;DHT22;447;51.332;6.778;2023-08-21T08:43:03;25.30;91.70
921;DHT22;447;51.332;6.778;2023-08-21T08:45:36;25.30;91.70
921;DHT22;447;51.332;6.778;2023-08-21T08:48:04;25.30;91.80
921;DHT22;447;51.332;6.778;2023-08-21T08:50:34;25.30;92.10
921;DHT22;447;51.332;6.778;2023-08-21T08:53:02;25.30;91.80
921;DHT22;447;51.332;6.778;2023-08-21T08:55:30;25.40;91.90
921;DHT22;447;51.332;6.778;2023-08-21T08:57:58;25.40;91.80
921;DHT22;447;51.332;6.778;2023-08-21T09:00:26;25.40;91.80
921;DHT22;447;51.332;6.778;2023-08-21T09:02:54;25.40;91.80
921;DHT22;447;51.332;6.778;2023-08-21T09:05:21;25.40;91.80
921;DHT22;447;51.332;6.778;2023-08-21T09:08:22;25.40;91.80
921;DHT22;447;51.332;6.778;2023-08-21T09:10:51;25.50;91.80
921;DHT22;447;51.332;6.778;2023-08-21T09:13:18;25.50;91.80
921;DHT22;447;51.332;6.778;2023-08-21T09:15:53;25.50;91.80
921;DHT22;447;51.332;6.778;2023-08-21T09:18:19;25.50;91.80
921;DHT22;447;51.332;6.778;2023-08-21T09:20:45;25.50;91.80
921;DHT22;447;51.332;6.778;2023-08-21T09:23:16;25.60;91.80
921;DHT22;447;51.332;6.778;2023-08-21T09:25:46;25.60;91.80
921;DHT22;447;51.332;6.778;2023-08-21T09:28:22;25.60;91.70
921;DHT22;447;51.332;6.778;2023-08-21T09:30:51;25.70;91.70
921;DHT22;447;51.332;6.778;2023-08-21T09:33:22;25.70;91.60
921;DHT22;447;51.332;6.778;2023-08-21T09:35:53;25.70;91.50
921;DHT22;447;51.332;6.778;2023-08-21T09:38:22;25.70;91.40
921;DHT22;447;51.332;6.778;2023-08-21T09:40:53;25.70;91.30
921;DHT22;447;51.332;6.778;2023-08-21T09:43:21;25.80;91.30
921;DHT22;447;51.332;6.778;2023-08-21T09:45:51;25.80;91.40
921;DHT22;447;51.332;6.778;2023-08-21T09:48:25;25.80;91.40
921;DHT22;447;51.332;6.778;2023-08-21T09:50:55;25.90;91.30
921;DHT22;447;51.332;6.778;2023-08-21T09:53:28;25.90;91.30
921;DHT22;447;51.332;6.778;2023-08-21T09:55:55;25.90;91.30
921;DHT22;447;51.332;6.778;2023-08-21T09:58:25;25.90;91.30
921;DHT22;447;51.332;6.778;2023-08-21T10:00:57;26.00;91.30
921;DHT22;447;51.332;6.778;2023-08-21T10:03:26;26.00;91.30
921;DHT22;447;51.332;6.778;2023-08-21T10:05:56;26.00;91.30
921;DHT22;447;51.332;6.778;2023-08-21T10:08:26;26.00;91.30
921;DHT22;447;51.332;6.778;2023-08-21T10:10:57;26.10;91.30
921;DHT22;447;51.332;6.778;2023-08-21T10:13:27;26.10;91.30
921;DHT22;447;51.332;6.778;2023-08-21T10:15:53;26.10;91.20
921;DHT22;447;51.332;6.778;2023-08-21T10:18:30;26.10;91.20
921;DHT22;447;51.332;6.778;2023-08-21T10:20:58;26.20;91.10
921;DHT22;447;51.332;6.778;2023-08-21T10:23:41;26.20;91.10
921;DHT22;447;51.332;6.778;2023-08-21T10:26:09;26.20;91.10
921;DHT22;447;51.332;6.778;2023-08-21T10:28:52;26.30;91.10
921;DHT22;447;51.332;6.778;2023-08-21T10:34:11;26.30;91.10
921;DHT22;447;51.332;6.778;2023-08-21T10:39:22;26.40;91.30
921;DHT22;447;51.332;6.778;2023-08-21T10:42:05;26.40;91.00
921;DHT22;447;51.332;6.778;2023-08-21T10:44:52;26.50;91.00
921;DHT22;447;51.332;6.778;2023-08-21T10:47:31;26.50;91.00
921;DHT22;447;51.332;6.778;2023-08-21T10:50:04;26.50;91.00
921;DHT22;447;51.332;6.778;2023-08-21T10:52:41;26.50;91.00
921;DHT22;447;51.332;6.778;2023-08-21T10:55:11;26.60;91.00
921;DHT22;447;51.332;6.778;2023-08-21T10:57:40;26.60;90.90
921;DHT22;447;51.332;6.778;2023-08-21T11:00:08;26.70;90.90
921;DHT22;447;51.332;6.778;2023-08-21T11:02:36;26.70;90.80
921;DHT22;447;51.332;6.778;2023-08-21T11:05:05;26.70;90.90
921;DHT22;447;51.332;6.778;2023-08-21T11:07:46;26.70;90.80
921;DHT22;447;51.332;6.778;2023-08-21T11:10:19;26.70;90.80
921;DHT22;447;51.332;6.778;2023-08-21T11:12:52;26.80;90.80
921;DHT22;447;51.332;6.778;2023-08-21T11:15:21;26.80;90.80
921;DHT22;447;51.332;6.778;2023-08-21T11:17:55;26.80;90.70
921;DHT22;447;51.332;6.778;2023-08-21T11:20:22;26.90;90.70
921;DHT22;447;51.332;6.778;2023-08-21T11:22:49;26.90;90.70
921;DHT22;447;51.332;6.778;2023-08-21T11:25:18;26.90;90.60
921;DHT22;447;51.332;6.778;2023-08-21T11:27:46;27.00;90.70
921;DHT22;447;51.332;6.778;2023-08-21T11:30:14;27.00;90.70
921;DHT22;447;51.332;6.778;2023-08-21T11:32:42;27.00;90.70
921;DHT22;447;51.332;6.778;2023-08-21T11:35:11;27.00;90.70
921;DHT22;447;51.332;6.778;2023-08-21T11:37:44;27.10;90.60
921;DHT22;447;51.332;6.778;2023-08-21T11:40:13;27.10;90.60
921;DHT22;447;51.332;6.778;2023-08-21T11:42:41;27.10;90.70
921;DHT22;447;51.332;6.778;2023-08-21T11:45:10;27.10;90.50
921;DHT22;447;51.332;6.778;2023-08-21T11:47:44;27.20;90.60
921;DHT22;447;51.332;6.778;2023-08-21T11:50:14;27.20;90.60
921;DHT22;447;51.332;6.778;2023-08-21T11:52:43;27.20;90.50
921;DHT22;447;51.332;6.778;2023-08-21T11:55:10;27.30;90.50
921;DHT22;447;51.332;6.778;2023-08-21T11:57:49;27.30;90.50
921;DHT22;447;51.332;6.778;2023-08-21T12:00:28;27.30;90.40
921;DHT22;447;51.332;6.778;2023-08-21T12:02:59;27.40;90.50
921;DHT22;447;51.332;6.778;2023-08-21T12:05:27;27.40;90.40
921;DHT22;447;51.332;6.778;2023-08-21T12:08:00;27.40;90.40
921;DHT22;447;51.332;6.778;2023-08-21T12:10:28;27.40;90.30
921;DHT22;447;51.332;6.778;2023-08-21T12:12:55;27.50;90.40
921;DHT22;447;51.332;6.778;2023-08-21T12:15:22;27.50;90.30
921;DHT22;447;51.332;6.778;2023-08-21T12:17:48;27.50;90.30
921;DHT22;447;51.332;6.778;2023-08-21T12:20:17;27.50;90.40
921;DHT22;447;51.332;6.778;2023-08-21T12:22:47;27.50;90.30
921;DHT22;447;51.332;6.778;2023-08-21T12:25:13;27.60;90.20
921;DHT22;447;51.332;6.778;2023-08-21T12:27:39;27.60;90.20
921;DHT22;447;51.332;6.778;2023-08-21T12:30:08;27.60;90.20
921;DHT22;447;51.332;6.778;2023-08-21T12:32:37;27.60;90.20
921;DHT22;447;51.332;6.778;2023-08-21T12:35:05;27.70;90.10
921;DHT22;447;51.332;6.778;2023-08-21T12:37:31;27.70;90.20
921;DHT22;447;51.332;6.778;2023-08-21T12:39:57;27.70;90.10
921;DHT22;447;51.332;6.778;2023-08-21T12:42:26;27.70;90.10
921;DHT22;447;51.332;6.778;2023-08-21T12:44:52;27.80;90.10
921;DHT22;447;51.332;6.778;2023-08-21T12:47:20;27.80;90.10
921;DHT22;447;51.332;6.778;2023-08-21T12:49:46;27.80;90.10
921;DHT22;447;51.332;6.778;2023-08-21T12:52:12;27.80;89.80
921;DHT22;447;51.332;6.778;2023-08-21T12:54:39;27.90;89.80
921;DHT22;447;51.332;6.778;2023-08-21T12:57:07;27.90;89.90
921;DHT22;447;51.332;6.778;2023-08-21T12:59:34;27.90;89.80
921;DHT22;447;51.332;6.778;2023-08-21T13:02:05;27.80;83.80
921;DHT22;447;51.332;6.778;2023-08-21T13:04:33;27.80;81.20
921;DHT22;447;51.332;6.778;2023-08-21T13:07:00;27.90;81.50
921;DHT22;447;51.332;6.778;2023-08-21T13:09:31;27.90;81.00
921;DHT22;447;51.332;6.778;2023-08-21T13:11:59;28.00;81.70
921;DHT22;447;51.332;6.778;2023-08-21T13:14:25;28.10;80.90
921;DHT22;447;51.332;6.778;2023-08-21T13:16:53;28.10;80.90
921;DHT22;447;51.332;6.778;2023-08-21T13:19:21;28.20;80.00
921;DHT22;447;51.332;6.778;2023-08-21T13:21:47;28.30;79.40
921;DHT22;447;51.332;6.778;2023-08-21T13:24:14;28.30;80.40
921;DHT22;447;51.332;6.778;2023-08-21T13:26:48;28.30;78.80
921;DHT22;447;51.332;6.778;2023-08-21T13:29:14;28.30;78.80
921;DHT22;447;51.332;6.778;2023-08-21T13:31:43;28.40;79.70
921;DHT22;447;51.332;6.778;2023-08-21T13:34:12;28.50;79.10
921;DHT22;447;51.332;6.778;2023-08-21T13:36:38;28.60;78.70
921;DHT22;447;51.332;6.778;2023-08-21T13:39:04;28.60;77.90
921;DHT22;447;51.332;6.778;2023-08-21T13:41:33;28.70;78.80
921;DHT22;447;51.332;6.778;2023-08-21T13:44:02;28.70;77.80
921;DHT22;447;51.332;6.778;2023-08-21T13:46:30;28.70;78.00
921;DHT22;447;51.332;6.778;2023-08-21T13:48:59;28.80;77.60
921;DHT22;447;51.332;6.778;2023-08-21T13:51:30;28.80;77.50
921;DHT22;447;51.332;6.778;2023-08-21T13:53:59;28.80;78.00
921;DHT22;447;51.332;6.778;2023-08-21T13:56:27;28.80;77.70
921;DHT22;447;51.332;6.778;2023-08-21T13:58:58;28.80;77.70
921;DHT22;447;51.332;6.778;2023-08-21T14:01:24;28.90;78.10
921;DHT22;447;51.332;6.778;2023-08-21T14:03:51;28.90;77.90
921;DHT22;447;51.332;6.778;2023-08-21T14:06:17;29.00;77.50
921;DHT22;447;51.332;6.778;2023-08-21T14:08:46;29.00;77.60
921;DHT22;447;51.332;6.778;2023-08-21T14:11:12;29.10;76.00
921;DHT22;447;51.332;6.778;2023-08-21T14:13:38;29.10;76.20
921;DHT22;447;51.332;6.778;2023-08-21T14:16:09;29.20;75.30
921;DHT22;447;51.332;6.778;2023-08-21T14:18:37;29.10;75.20
921;DHT22;447;51.332;6.778;2023-08-21T14:21:06;29.20;75.70
921;DHT22;447;51.332;6.778;2023-08-21T14:23:37;29.20;73.30
921;DHT22;447;51.332;6.778;2023-08-21T14:26:06;29.20;75.70
921;DHT22;447;51.332;6.778;2023-08-21T14:28:34;29.20;74.70
921;DHT22;447;51.332;6.778;2023-08-21T14:31:11;29.20;75.00
921;DHT22;447;51.332;6.778;2023-08-21T14:33:37;29.10;74.40
921;DHT22;447;51.332;6.778;2023-08-21T14:36:03;29.20;74.70
921;DHT22;447;51.332;6.778;2023-08-21T14:38:33;29.20;75.60
921;DHT22;447;51.332;6.778;2023-08-21T14:40:59;29.20;76.00
921;DHT22;447;51.332;6.778;2023-08-21T14:43:30;29.20;74.40
921;DHT22;447;51.332;6.778;2023-08-21T14:46:01;29.30;74.40
921;DHT22;447;51.332;6.778;2023-08-21T14:48:34;29.40;74.20
921;DHT22;447;51.332;6.778;2023-08-21T14:51:00;29.40;74.00
921;DHT22;447;51.332;6.778;2023-08-21T14:53:26;29.40;74.10
921;DHT22;447;51.332;6.778;2023-08-21T14:55:52;29.50;73.10
921;DHT22;447;51.332;6.778;2023-08-21T14:58:18;29.60;73.90
921;DHT22;447;51.332;6.778;2023-08-21T15:00:46;29.70;73.30
921;DHT22;447;51.332;6.778;2023-08-21T15:03:13;29.70;72.20
921;DHT22;447;51.332;6.778;2023-08-21T15:05:41;29.70;72.10
921;DHT22;447;51.332;6.778;2023-08-21T15:08:07;29.70;72.30
921;DHT22;447;51.332;6.778;2023-08-21T15:10:35;29.60;72.30
921;DHT22;447;51.332;6.778;2023-08-21T15:13:01;29.60;75.20
921;DHT22;447;51.332;6.778;2023-08-21T15:15:27;29.60;76.00
921;DHT22;447;51.332;6.778;2023-08-21T15:18:01;29.60;76.90
921;DHT22;447;51.332;6.778;2023-08-21T15:20:36;29.50;77.40
921;DHT22;447;51.332;6.778;2023-08-21T15:23:02;29.60;78.40
921;DHT22;447;51.332;6.778;2023-08-21T15:25:28;29.60;78.50
921;DHT22;447;51.332;6.778;2023-08-21T15:27:58;29.60;78.80
921;DHT22;447;51.332;6.778;2023-08-21T15:30:27;29.60;79.30
921;DHT22;447;51.332;6.778;2023-08-21T15:32:53;29.60;80.30
921;DHT22;447;51.332;6.778;2023-08-21T15:35:19;29.60;79.80
921;DHT22;447;51.332;6.778;2023-08-21T15:37:45;29.70;80.00
921;DHT22;447;51.332;6.778;2023-08-21T15:40:14;29.70;80.00
921;DHT22;447;51.332;6.778;2023-08-21T15:42:40;29.70;80.00
921;DHT22;447;51.332;6.778;2023-08-21T15:45:10;29.80;80.10
921;DHT22;447;51.332;6.778;2023-08-21T15:47:36;29.80;80.30
921;DHT22;447;51.332;6.778;2023-08-21T15:50:02;29.80;80.30
921;DHT22;447;51.332;6.778;2023-08-21T15:52:28;29.90;80.50
921;DHT22;447;51.332;6.778;2023-08-21T15:54:56;29.90;80.20
921;DHT22;447;51.332;6.778;2023-08-21T15:57:22;29.90;79.80
921;DHT22;447;51.332;6.778;2023-08-21T15:59:52;30.00;80.40
921;DHT22;447;51.332;6.778;2023-08-21T16:02:18;30.00;80.30
921;DHT22;447;51.332;6.778;2023-08-21T16:04:44;30.00;80.60
921;DHT22;447;51.332;6.778;2023-08-21T16:07:10;30.00;80.30
921;DHT22;447;51.332;6.778;2023-08-21T16:09:38;30.10;80.50
921;DHT22;447;51.332;6.778;2023-08-21T16:12:05;30.10;80.40
921;DHT22;447;51.332;6.778;2023-08-21T16:14:31;30.20;80.50
921;DHT22;447;51.332;6.778;2023-08-21T16:16:59;30.20;80.30
921;DHT22;447;51.332;6.778;2023-08-21T16:19:29;30.20;80.00
921;DHT22;447;51.332;6.778;2023-08-21T16:21:55;30.20;80.00
921;DHT22;447;51.332;6.778;2023-08-21T16:24:25;30.20;79.70
921;DHT22;447;51.332;6.778;2023-08-21T16:26:54;30.30;80.10
921;DHT22;447;51.332;6.778;2023-08-21T16:29:25;30.30;80.00
921;DHT22;447;51.332;6.778;2023-08-21T16:31:56;30.40;80.20
921;DHT22;447;51.332;6.778;2023-08-21T16:34:24;30.40;80.20
921;DHT22;447;51.332;6.778;2023-08-21T16:36:50;30.40;80.40
921;DHT22;447;51.332;6.778;2023-08-21T16:39:16;30.40;80.30
921;DHT22;447;51.332;6.778;2023-08-21T16:41:42;30.50;80.60
921;DHT22;447;51.332;6.778;2023-08-21T16:44:08;30.50;80.40
921;DHT22;447;51.332;6.778;2023-08-21T16:46:36;30.60;80.40
921;DHT22;447;51.332;6.778;2023-08-21T16:49:02;30.60;80.50